CST,Max TemperatureF,Mean TemperatureF,Min TemperatureF,Max Dew PointF,MeanDew PointF,Min DewpointF,Max Humidity, Mean Humidity, Min Humidity, Max Sea Level PressureIn, Mean Sea Level PressureIn, Min Sea Level PressureIn, Max VisibilityMiles, Mean VisibilityMiles, Min VisibilityMiles, Max Wind SpeedMPH, Mean Wind SpeedMPH, Max Gust SpeedMPH,PrecipitationIn, CloudCover, Events, WindDirDegrees
2013-1-1,19,5,-9,15,0,-15,87,79,67,30.35,30.21,30.06,10,10,10,10,4,,0.00,6,,213
2013-1-2,21,18,15,18,14,12,93,87,78,30.12,30.00,29.94,8,3,1,12,8,,0.00,8,Snow,197
2013-1-3,19,14,9,16,7,2,86,76,65,30.31,30.21,30.07,10,8,1,13,10,17,0.00,5,Snow,271
2013-1-4,27,20,14,16,13,10,88,74,58,30.15,30.12,30.06,10,10,9,13,9,,0.00,0,,236
2013-1-5,21,14,8,13,10,4,88,77,65,30.12,30.00,29.89,9,7,4,10,5,,0.00,0,,228
2013-1-6,19,14,10,13,9,3,88,75,65,30.26,30.17,30.05,10,10,8,10,8,,0.00,1,,256
2013-1-7,35,29,23,23,21,16,85,72,61,30.00,29.95,29.92,10,10,8,16,11,23,0.00,0,,216
2013-1-8,34,26,17,28,21,16,93,84,72,30.00,29.90,29.74,10,6,0,15,4,20,0.00,1,Fog,172
2013-1-9,34,29,24,25,21,19,82,70,59,30.38,30.21,29.95,10,10,10,18,11,31,0.00,0,,237
2013-1-10,39,33,27,34,26,19,93,74,50,30.32,30.03,29.73,10,7,1,15,9,21,0.24,4,Rain,143
2013-1-11,41,38,35,39,36,34,100,94,89,29.72,29.51,29.36,7,2,0,14,8,,0.00,8,Fog-Rain,162
2013-1-12,39,22,5,36,9,-3,93,71,61,30.13,29.82,29.37,10,9,2,23,15,37,0.00,6,Snow,260
2013-1-13,9,5,1,0,-2,-5,80,72,67,30.30,30.16,30.08,10,8,3,14,8,,0.00,5,Snow,280
2013-1-14,12,8,3,3,1,-1,84,73,59,30.46,30.39,30.30,10,10,9,9,5,,0.00,2,,233
2013-1-15,30,20,9,17,11,5,84,69,53,30.31,30.17,29.89,10,10,10,16,8,21,0.00,0,,210
2013-1-16,37,26,12,30,20,0,93,74,43,30.25,29.85,29.65,10,7,2,17,11,26,0.00,5,Rain-Snow,279
2013-1-17,19,12,5,10,2,-5,74,63,50,30.44,30.39,30.29,10,9,3,12,6,,0.00,5,Snow,257
2013-1-18,42,30,17,28,21,10,82,74,58,30.29,29.96,29.75,10,9,2,14,8,22,0.00,4,Snow,185
2013-1-19,39,21,3,29,14,-6,92,70,54,30.27,29.90,29.70,10,10,8,32,11,47,0.00,4,,287
2013-1-20,10,5,-2,1,-6,-12,79,64,51,30.46,30.34,30.24,10,9,1,18,13,28,0.00,4,Snow,292
2013-1-21,-2,-6,-9,-12,-16,-20,72,61,50,30.42,30.34,30.27,10,10,8,17,13,25,0.00,3,,289
2013-1-22,5,-4,-11,-4,-12,-19,70,64,54,30.47,30.39,30.29,10,10,10,12,6,,0.00,3,,293
2013-1-23,17,8,-4,7,-3,-17,80,61,48,30.66,30.32,30.16,10,9,3,24,7,32,0.00,4,Snow,328
2013-1-24,14,4,-5,0,-10,-18,60,54,47,30.74,30.53,30.22,10,10,10,14,8,,0.00,3,,123
2013-1-25,19,12,3,12,4,-4,74,64,52,30.35,30.10,29.94,10,9,2,24,12,37,0.00,4,Snow,271
2013-1-26,24,12,0,11,3,-6,79,63,46,30.39,30.29,30.14,10,10,10,14,6,,0.00,2,,126
2013-1-27,33,28,24,31,26,11,96,82,52,30.12,29.89,29.79,10,4,0,13,9,17,0.39,7,Fog-Rain-Snow,114
2013-1-28,35,32,30,32,30,28,96,92,87,29.91,29.80,29.62,5,2,0,12,4,,0.00,8,Fog-Rain,107
2013-1-29,36,32,28,32,28,20,93,83,69,29.75,29.62,29.54,10,7,1,15,7,22,0.01,8,Rain,339
2013-1-30,27,18,8,19,9,-1,75,69,62,29.80,29.69,29.64,10,9,4,20,15,28,0.00,7,Snow,329
2013-1-31,8,0,-8,1,-7,-17,73,66,60,30.34,30.04,29.75,10,8,3,21,14,29,0.00,6,Snow,300